Havasu Lake, California
Current Conditions -  °F | °C
As of 3:56 PM on Saturday 22 Nov 2014 (Local Time) from KEED Reporting Station
Clear Clear  
Wind Chill: 74°   Ceiling: Unl
Heat Index: 74°   Visibility: 10mi
Dew Point: 27°   Wind: 15mph
Humidity: 18%   Direction: 200°SSW
Pressure: 29.88"   Gusts: NA
Location:  34.5025°N, 114.671°W
Report Text: KEED 222356Z AUTO 20013KT 10SM CLR 23/M03 A2988 RMK AO2 SLP100 T02331028 10250 20178 58023
Loading
Personal Weather Stations






























Interactive Weather Map New forecast layout! Learn more

10-Day Weather Forecast

Advertisements
Track Severe Weather on mobile